Terminal Aerodrome Forecast
Issued by NWS

Home | Current Version | Previous Version | Text Only | Print | Product List | Glossary On
Versions: 1 2 3 4 5 6 7 8 9 10 11 12 13 14 15 16 17 18 19 20 21 22 23 24 25 26 27 28 29 30 31 32 33 34 35 36 37
655
FTUS46 KPQR 111724
TAFONP
TAF
KONP 111724Z 1118/1218 11007KT P6SM -RA SCT011 BKN013 BKN020
      TEMPO 1118/1122 5SM RA OVC015
     FM112200 17008KT 4SM -SHRA BR OVC025
     FM120300 18008KT P6SM -SHRA OVC035
     FM120800 18010G20KT P6SM -SHRA OVC050
     FM121500 19011KT 4SM -RA BR OVC025=

USA.gov is the U.S. government's official web portal to all federal, state and local government web resources and services.